Time;durP1;ratioP1;P1;durP2;ratioP2;P2;SDS_P1;SDS_P2;PMS_P1;PMS_P2;Temp;Humidity;BMP_temperature;BMP_pressure;BME280_temperature;BME280_humidity;BME280_pressure;Samples;Min_cycle;Max_cycle;Signal;HPM_P1;HPM_P2
2023/04/23 00:00:15;;;;;;;;;;;14.80;99.90;;;;;;4590623;19;19915;-22
2023/04/23 00:02:07;;;;;;;;;;;14.80;99.90;;;;;;4590655;19;19928;-22
2023/04/23 00:03:38;;;;;;;;;;;14.80;99.90;;;;;;4589165;19;19994;-22
2023/04/23 00:05:09;;;;;;;;;;;14.80;99.90;;;;;;4589288;19;19915;-22
2023/04/23 00:06:40;;;;;;;;;;;14.80;99.90;;;;;;4589879;19;19971;-22
2023/04/23 00:08:12;;;;;;;;;;;14.70;99.90;;;;;;4589498;19;19930;-25
2023/04/23 00:09:43;;;;;;;;;;;14.80;99.90;;;;;;4589064;19;19926;-22
2023/04/23 00:11:13;;;;;;;;;;;14.80;99.90;;;;;;4588199;19;20374;-23
2023/04/23 00:12:45;;;;;;;;;;;14.70;99.90;;;;;;4590657;19;19919;-22
2023/04/23 00:14:18;;;;;;;;;;;14.80;99.90;;;;;;4590097;19;19915;-21
2023/04/23 00:15:52;;;;;;;;;;;14.80;99.90;;;;;;4589091;19;19970;-22
2023/04/23 00:17:23;;;;;;;;;;;14.70;99.90;;;;;;4591411;19;19926;-22
2023/04/23 00:18:54;;;;;;;;;;;14.70;99.90;;;;;;4595465;19;20433;-23
2023/04/23 00:20:25;;;;;;;;;;;14.70;99.90;;;;;;4593496;19;19931;-22
2023/04/23 00:21:56;;;;;;;;;;;14.70;99.90;;;;;;4594324;19;19915;-22
2023/04/23 00:23:27;;;;;;;;;;;14.80;99.90;;;;;;4594786;19;19966;-21
2023/04/23 00:24:59;;;;;;;;;;;14.70;99.90;;;;;;4595277;19;20270;-21
2023/04/23 00:26:31;;;;;;;;;;;14.70;99.90;;;;;;4594594;19;19930;-22
2023/04/23 00:28:02;;;;;;;;;;;14.70;99.90;;;;;;4594778;19;19915;-22
2023/04/23 00:29:33;;;;;;;;;;;14.70;99.90;;;;;;4595014;19;19956;-23
2023/04/23 00:31:04;;;;;;;;;;;14.70;99.90;;;;;;4593703;19;19918;-22
2023/04/23 00:32:35;;;;;;;;;;;14.70;99.90;;;;;;4594538;19;19911;-22
2023/04/23 00:34:06;;;;;;;;;;;14.70;99.90;;;;;;4594826;19;19917;-21
2023/04/23 00:35:38;;;;;;;;;;;14.70;99.90;;;;;;4594530;19;19918;-23
2023/04/23 00:37:09;;;;;;;;;;;14.70;99.90;;;;;;4593071;19;19926;-22
2023/04/23 00:38:39;;;;;;;;;;;14.70;99.90;;;;;;4594072;19;20251;-22
2023/04/23 00:40:11;;;;;;;;;;;14.70;99.90;;;;;;4594958;19;19925;-21
2023/04/23 00:41:44;;;;;;;;;;;14.70;99.90;;;;;;4595277;19;19922;-23
2023/04/23 00:43:15;;;;;;;;;;;14.70;99.90;;;;;;4594159;19;19989;-21
2023/04/23 00:44:46;;;;;;;;;;;14.70;99.90;;;;;;4593259;19;19934;-22
2023/04/23 00:46:17;;;;;;;;;;;14.70;99.90;;;;;;4594386;19;19915;-22
2023/04/23 00:47:48;;;;;;;;;;;14.70;99.90;;;;;;4594806;19;19922;-22
2023/04/23 00:49:20;;;;;;;;;;;14.70;99.90;;;;;;4594079;19;20237;-22
2023/04/23 00:50:58;;;;;;;;;;;14.70;99.90;;;;;;4592881;19;19914;-22
2023/04/23 00:52:30;;;;;;;;;;;14.70;99.90;;;;;;4594429;19;19915;-22
2023/04/23 00:54:02;;;;;;;;;;;14.70;99.90;;;;;;4594869;19;19923;-21
2023/04/23 00:55:33;;;;;;;;;;;14.70;99.90;;;;;;4594188;19;20408;-22
2023/04/23 00:57:03;;;;;;;;;;;14.70;99.90;;;;;;4594464;19;19915;-22
2023/04/23 00:58:35;;;;;;;;;;;14.70;99.90;;;;;;4594620;19;19926;-22
2023/04/23 01:00:06;;;;;;;;;;;14.70;99.90;;;;;;4593918;19;19915;-22
2023/04/23 01:01:37;;;;;;;;;;;14.70;99.90;;;;;;4594606;19;19942;-22
2023/04/23 01:03:09;;;;;;;;;;;14.70;99.90;;;;;;4594382;19;19926;-22
2023/04/23 01:04:40;;;;;;;;;;;14.70;99.90;;;;;;4594750;19;19918;-22
2023/04/23 01:06:10;;;;;;;;;;;14.70;99.90;;;;;;4592430;19;19951;-21
2023/04/23 01:07:43;;;;;;;;;;;14.70;99.90;;;;;;4593427;19;20279;-21
2023/04/23 01:09:17;;;;;;;;;;;14.70;99.90;;;;;;4593045;19;19911;-22
2023/04/23 01:10:47;;;;;;;;;;;14.70;99.90;;;;;;4593440;19;20245;-22
2023/04/23 01:12:19;;;;;;;;;;;14.70;99.90;;;;;;4592536;19;19927;-22
2023/04/23 01:13:51;;;;;;;;;;;14.70;99.90;;;;;;4593448;19;19914;-22
2023/04/23 01:15:21;;;;;;;;;;;14.70;99.90;;;;;;4593121;19;19972;-21
2023/04/23 01:16:53;;;;;;;;;;;14.70;99.90;;;;;;4593790;19;19925;-21
2023/04/23 01:18:24;;;;;;;;;;;14.70;99.90;;;;;;4592420;19;19919;-24
2023/04/23 01:19:55;;;;;;;;;;;14.70;99.90;;;;;;4593115;19;19938;-21
2023/04/23 01:21:27;;;;;;;;;;;14.70;99.90;;;;;;4592865;19;19918;-22
2023/04/23 01:22:58;;;;;;;;;;;14.70;99.90;;;;;;4592943;19;19921;-21
2023/04/23 01:24:30;;;;;;;;;;;14.60;99.90;;;;;;4593664;19;19914;-21
2023/04/23 01:26:04;;;;;;;;;;;14.60;99.90;;;;;;4592759;19;19938;-21
2023/04/23 01:27:36;;;;;;;;;;;14.60;99.90;;;;;;4593557;19;19925;-23
2023/04/23 01:29:08;;;;;;;;;;;14.70;99.90;;;;;;4591940;19;19915;-21
2023/04/23 01:30:41;;;;;;;;;;;14.70;99.90;;;;;;4590885;19;19919;-22
2023/04/23 01:32:12;;;;;;;;;;;14.60;99.90;;;;;;4593051;19;19911;-21
2023/04/23 01:33:45;;;;;;;;;;;14.70;99.90;;;;;;4593966;19;19936;-22
2023/04/23 01:35:16;;;;;;;;;;;14.70;99.90;;;;;;4591892;19;19915;-22
2023/04/23 01:36:47;;;;;;;;;;;14.60;99.90;;;;;;4592775;19;19919;-22
2023/04/23 01:38:18;;;;;;;;;;;14.60;99.90;;;;;;4593640;19;20250;-25
2023/04/23 01:39:50;;;;;;;;;;;14.60;99.90;;;;;;4592226;19;19999;-21
2023/04/23 01:41:21;;;;;;;;;;;14.60;99.90;;;;;;4592760;19;19925;-21
2023/04/23 01:42:53;;;;;;;;;;;14.60;99.90;;;;;;4593448;19;19919;-22
2023/04/23 01:44:25;;;;;;;;;;;14.60;99.90;;;;;;4592969;19;20282;-22
2023/04/23 01:45:56;;;;;;;;;;;14.60;99.90;;;;;;4591775;19;19915;-22
2023/04/23 01:47:27;;;;;;;;;;;14.60;99.90;;;;;;4592208;19;19925;-21
2023/04/23 01:48:58;;;;;;;;;;;14.60;99.90;;;;;;4591892;19;19926;-22
2023/04/23 01:50:30;;;;;;;;;;;14.60;99.90;;;;;;4592242;19;20222;-21
2023/04/23 01:52:01;;;;;;;;;;;14.60;99.90;;;;;;4592707;19;19993;-21
2023/04/23 01:53:32;;;;;;;;;;;14.60;99.90;;;;;;4593200;19;19911;-21
2023/04/23 01:55:03;;;;;;;;;;;14.60;99.90;;;;;;4593473;19;19978;-22
2023/04/23 01:56:35;;;;;;;;;;;14.60;99.90;;;;;;4593739;19;20365;-24
2023/04/23 01:58:06;;;;;;;;;;;14.60;99.90;;;;;;4592713;19;19914;-22
2023/04/23 01:59:37;;;;;;;;;;;14.60;99.90;;;;;;4593135;19;19925;-22
2023/04/23 02:01:12;;;;;;;;;;;14.60;99.90;;;;;;4591908;19;19923;-21
2023/04/23 02:02:43;;;;;;;;;;;14.60;99.90;;;;;;4592801;19;19918;-21
2023/04/23 02:04:15;;;;;;;;;;;14.60;99.90;;;;;;4592710;19;19923;-22
2023/04/23 02:05:46;;;;;;;;;;;14.60;99.90;;;;;;4592928;19;20368;-22
2023/04/23 02:07:17;;;;;;;;;;;14.60;99.90;;;;;;4591534;19;19930;-21
2023/04/23 02:08:51;;;;;;;;;;;14.60;99.90;;;;;;4592377;19;19926;-22
2023/04/23 02:10:21;;;;;;;;;;;14.60;99.90;;;;;;4592410;19;19917;-21
2023/04/23 02:11:53;;;;;;;;;;;14.60;99.90;;;;;;4593143;19;19915;-22
2023/04/23 02:13:24;;;;;;;;;;;14.60;99.90;;;;;;4592651;19;19919;-22
2023/04/23 02:14:55;;;;;;;;;;;14.60;99.90;;;;;;4591073;19;20282;-22
2023/04/23 02:16:27;;;;;;;;;;;14.60;99.90;;;;;;4591930;19;19918;-22
2023/04/23 02:17:58;;;;;;;;;;;14.60;99.90;;;;;;4592810;19;19926;-23
2023/04/23 02:19:33;;;;;;;;;;;14.60;99.90;;;;;;4592983;19;19947;-22
2023/04/23 02:21:06;;;;;;;;;;;14.60;99.90;;;;;;4592333;19;19919;-23
2023/04/23 02:22:39;;;;;;;;;;;14.60;99.90;;;;;;4592221;19;19926;-22
2023/04/23 02:24:10;;;;;;;;;;;14.60;99.90;;;;;;4592376;19;20336;-22
2023/04/23 02:25:42;;;;;;;;;;;14.60;99.90;;;;;;4592870;19;19918;-22
2023/04/23 02:27:13;;;;;;;;;;;14.50;99.90;;;;;;4592085;19;19922;-22
2023/04/23 02:28:44;;;;;;;;;;;14.60;99.90;;;;;;4591797;19;19919;-22
2023/04/23 02:30:15;;;;;;;;;;;14.60;99.90;;;;;;4591981;19;19919;-23
2023/04/23 02:31:46;;;;;;;;;;;14.60;99.90;;;;;;4590628;19;19915;-21
2023/04/23 02:33:18;;;;;;;;;;;14.60;99.90;;;;;;4589588;19;19918;-23
2023/04/23 02:34:49;;;;;;;;;;;14.60;99.90;;;;;;4591376;19;19923;-22
2023/04/23 02:36:20;;;;;;;;;;;14.60;99.90;;;;;;4592888;19;20357;-21
2023/04/23 02:37:53;;;;;;;;;;;14.60;99.90;;;;;;4592037;19;19993;-22
2023/04/23 02:39:24;;;;;;;;;;;14.50;99.90;;;;;;4591817;19;19926;-22
2023/04/23 02:40:55;;;;;;;;;;;14.50;99.90;;;;;;4591197;19;19978;-22
2023/04/23 02:42:27;;;;;;;;;;;14.50;99.90;;;;;;4592280;19;19918;-22
2023/04/23 02:43:58;;;;;;;;;;;14.50;99.90;;;;;;4591571;19;19919;-22
2023/04/23 02:45:29;;;;;;;;;;;14.50;99.90;;;;;;4591926;19;19922;-22
2023/04/23 02:47:00;;;;;;;;;;;14.50;99.90;;;;;;4590678;19;19921;-22
2023/04/23 02:48:32;;;;;;;;;;;14.50;99.90;;;;;;4591840;19;20344;-21
2023/04/23 02:50:06;;;;;;;;;;;14.50;99.90;;;;;;4590175;19;19911;-23
2023/04/23 02:51:37;;;;;;;;;;;14.50;99.90;;;;;;4590564;19;19915;-22
2023/04/23 02:53:08;;;;;;;;;;;14.50;99.90;;;;;;4591882;19;19929;-21
2023/04/23 02:54:39;;;;;;;;;;;14.50;99.90;;;;;;4591551;19;19911;-22
2023/04/23 02:56:10;;;;;;;;;;;14.50;99.90;;;;;;4588986;19;20019;-22
2023/04/23 02:57:41;;;;;;;;;;;14.50;99.90;;;;;;4590887;19;19930;-22
2023/04/23 02:59:12;;;;;;;;;;;14.50;99.90;;;;;;4592195;19;19924;-22
2023/04/23 03:00:43;;;;;;;;;;;14.50;99.90;;;;;;4591490;19;19918;-21
2023/04/23 03:02:15;;;;;;;;;;;14.50;99.90;;;;;;4588772;19;19918;-21
2023/04/23 03:03:49;;;;;;;;;;;14.50;99.90;;;;;;4591047;19;19915;-21
2023/04/23 03:05:20;;;;;;;;;;;14.50;99.90;;;;;;4592010;19;19916;-23
2023/04/23 03:06:51;;;;;;;;;;;14.50;99.90;;;;;;4591132;19;19914;-22
2023/04/23 03:08:22;;;;;;;;;;;14.50;99.90;;;;;;4592024;19;19928;-22
2023/04/23 03:09:53;;;;;;;;;;;14.50;99.90;;;;;;4590741;19;19977;-22
2023/04/23 03:11:24;;;;;;;;;;;14.50;99.90;;;;;;4590197;19;20321;-21
2023/04/23 03:12:55;;;;;;;;;;;14.50;99.90;;;;;;4591295;19;19918;-22
2023/04/23 03:14:26;;;;;;;;;;;14.50;99.90;;;;;;4591578;19;20318;-21
2023/04/23 03:15:57;;;;;;;;;;;14.50;99.90;;;;;;4591836;19;19919;-21
2023/04/23 03:17:28;;;;;;;;;;;14.50;99.90;;;;;;4592033;19;20337;-21
2023/04/23 03:19:00;;;;;;;;;;;14.50;99.90;;;;;;4593313;19;19978;-21
2023/04/23 03:20:31;;;;;;;;;;;14.50;99.90;;;;;;4592503;19;19926;-22
2023/04/23 03:22:04;;;;;;;;;;;14.50;99.90;;;;;;4594718;19;19922;-22
2023/04/23 03:23:35;;;;;;;;;;;14.50;99.90;;;;;;4590882;19;20284;-22
2023/04/23 03:25:07;;;;;;;;;;;14.50;99.90;;;;;;4591994;19;19925;-22
2023/04/23 03:26:39;;;;;;;;;;;14.40;99.90;;;;;;4593564;19;19918;-25
2023/04/23 03:28:10;;;;;;;;;;;14.40;99.90;;;;;;4590632;19;19938;-22
2023/04/23 03:29:43;;;;;;;;;;;14.50;99.90;;;;;;4591167;19;19919;-21
2023/04/23 03:31:14;;;;;;;;;;;14.50;99.90;;;;;;4592289;19;19923;-23
2023/04/23 03:32:45;;;;;;;;;;;14.40;99.90;;;;;;4591589;19;20341;-21
2023/04/23 03:34:16;;;;;;;;;;;14.40;99.90;;;;;;4591152;19;19918;-22
2023/04/23 03:35:47;;;;;;;;;;;14.50;99.90;;;;;;4591995;19;20249;-22
2023/04/23 03:37:18;;;;;;;;;;;14.50;99.90;;;;;;4590458;19;19915;-25
2023/04/23 03:38:50;;;;;;;;;;;14.40;99.90;;;;;;4591830;19;19923;-22
2023/04/23 03:40:21;;;;;;;;;;;14.50;99.90;;;;;;4592497;19;19931;-22
2023/04/23 03:41:54;;;;;;;;;;;14.40;99.90;;;;;;4593727;19;19934;-21
2023/04/23 03:43:25;;;;;;;;;;;14.50;99.90;;;;;;4591638;19;20207;-22
2023/04/23 03:44:57;;;;;;;;;;;14.40;99.90;;;;;;4593384;19;19922;-21
2023/04/23 03:46:28;;;;;;;;;;;14.40;99.90;;;;;;4589413;19;19919;-23
2023/04/23 03:47:59;;;;;;;;;;;14.50;99.90;;;;;;4590324;19;19928;-22
2023/04/23 03:49:30;;;;;;;;;;;14.50;99.90;;;;;;4593889;19;20317;-22
2023/04/23 03:51:01;;;;;;;;;;;14.40;99.90;;;;;;4592281;19;20006;-22
2023/04/23 03:52:32;;;;;;;;;;;14.40;99.90;;;;;;4592792;19;19922;-23
2023/04/23 03:54:03;;;;;;;;;;;14.50;99.90;;;;;;4597854;19;19970;-22
2023/04/23 03:55:34;;;;;;;;;;;14.40;99.90;;;;;;4596535;19;20003;-22
2023/04/23 03:57:06;;;;;;;;;;;14.50;99.90;;;;;;4594739;19;20263;-22
2023/04/23 03:58:37;;;;;;;;;;;14.50;99.90;;;;;;4595484;19;19966;-22
2023/04/23 04:00:10;;;;;;;;;;;14.50;99.90;;;;;;4595774;19;19915;-22
2023/04/23 04:01:42;;;;;;;;;;;14.50;99.90;;;;;;4595831;19;20263;-21
2023/04/23 04:03:13;;;;;;;;;;;14.50;99.90;;;;;;4593899;19;20249;-21
2023/04/23 04:04:44;;;;;;;;;;;14.60;99.90;;;;;;4593968;19;19971;-21
2023/04/23 04:06:16;;;;;;;;;;;14.60;99.90;;;;;;4594138;19;20032;-21
2023/04/23 04:07:46;;;;;;;;;;;14.60;99.90;;;;;;4594658;19;20353;-22
2023/04/23 04:09:17;;;;;;;;;;;14.70;99.90;;;;;;4594636;19;19911;-23
2023/04/23 04:10:49;;;;;;;;;;;14.70;99.90;;;;;;4594863;19;19911;-22
2023/04/23 04:12:20;;;;;;;;;;;14.70;99.90;;;;;;4595577;19;19917;-21
2023/04/23 04:13:51;;;;;;;;;;;14.70;99.90;;;;;;4595117;19;19932;-21
2023/04/23 04:15:22;;;;;;;;;;;14.80;99.90;;;;;;4595011;19;19950;-23
2023/04/23 04:16:53;;;;;;;;;;;14.80;99.90;;;;;;4593992;19;19918;-21
2023/04/23 04:18:25;;;;;;;;;;;14.90;99.90;;;;;;4595181;19;20314;-21
2023/04/23 04:19:57;;;;;;;;;;;14.90;99.90;;;;;;4593436;19;19923;-21
2023/04/23 04:21:28;;;;;;;;;;;14.90;99.90;;;;;;4594753;19;20244;-23
2023/04/23 04:22:59;;;;;;;;;;;14.90;99.90;;;;;;4594147;19;19918;-23
2023/04/23 04:24:31;;;;;;;;;;;14.90;99.90;;;;;;4594884;19;19923;-21
2023/04/23 04:26:02;;;;;;;;;;;14.90;99.90;;;;;;4594330;19;19929;-21
2023/04/23 04:27:33;;;;;;;;;;;14.90;99.90;;;;;;4595017;19;19923;-21
2023/04/23 04:29:04;;;;;;;;;;;15.00;99.90;;;;;;4594404;19;19919;-22
2023/04/23 04:30:35;;;;;;;;;;;15.00;99.90;;;;;;4591975;19;20344;-22
2023/04/23 04:32:07;;;;;;;;;;;15.00;99.90;;;;;;4593459;19;20303;-21
2023/04/23 04:33:38;;;;;;;;;;;15.00;99.90;;;;;;4594502;19;19952;-21
2023/04/23 04:35:09;;;;;;;;;;;15.00;99.90;;;;;;4595414;19;19919;-22
2023/04/23 04:36:41;;;;;;;;;;;15.00;99.90;;;;;;4594289;19;19919;-21
2023/04/23 04:38:12;;;;;;;;;;;15.00;99.90;;;;;;4594352;19;19915;-21
2023/04/23 04:39:43;;;;;;;;;;;15.00;99.90;;;;;;4594632;19;20353;-22
2023/04/23 04:41:14;;;;;;;;;;;15.00;99.90;;;;;;4594679;19;19915;-21
2023/04/23 04:42:45;;;;;;;;;;;15.00;99.90;;;;;;4594174;19;20253;-21
2023/04/23 04:44:16;;;;;;;;;;;15.00;99.90;;;;;;4594726;19;19929;-21
2023/04/23 04:45:47;;;;;;;;;;;15.00;99.90;;;;;;4594781;19;19911;-21
2023/04/23 04:47:18;;;;;;;;;;;15.00;99.90;;;;;;4593630;19;19911;-21
2023/04/23 04:48:50;;;;;;;;;;;15.00;99.90;;;;;;4593978;19;20360;-22
2023/04/23 04:50:21;;;;;;;;;;;15.00;99.90;;;;;;4593540;19;19919;-22
2023/04/23 04:51:53;;;;;;;;;;;15.00;99.90;;;;;;4593009;19;19929;-21
2023/04/23 04:53:24;;;;;;;;;;;15.00;99.90;;;;;;4592846;19;19934;-24
2023/04/23 04:54:55;;;;;;;;;;;15.00;99.90;;;;;;4593571;19;19911;-20
2023/04/23 04:56:26;;;;;;;;;;;15.00;99.90;;;;;;4594548;19;20261;-21
2023/04/23 04:57:57;;;;;;;;;;;15.00;99.90;;;;;;4594484;19;20333;-22
2023/04/23 04:59:28;;;;;;;;;;;15.00;99.90;;;;;;4593933;19;19921;-22
2023/04/23 05:01:00;;;;;;;;;;;15.00;99.90;;;;;;4594249;19;19926;-22
2023/04/23 05:02:31;;;;;;;;;;;15.00;99.90;;;;;;4594505;19;19918;-21
2023/04/23 05:04:02;;;;;;;;;;;15.00;99.90;;;;;;4593204;19;19919;-22
2023/04/23 05:05:33;;;;;;;;;;;15.00;99.90;;;;;;4592864;19;19918;-22
2023/04/23 05:07:05;;;;;;;;;;;15.00;99.90;;;;;;4593759;19;20245;-22
2023/04/23 05:08:37;;;;;;;;;;;15.00;99.90;;;;;;4594635;19;19928;-21
2023/04/23 05:10:08;;;;;;;;;;;15.00;99.90;;;;;;4592647;19;19978;-22
2023/04/23 05:11:40;;;;;;;;;;;15.00;99.90;;;;;;4591148;19;19945;-21
2023/04/23 05:13:12;;;;;;;;;;;15.00;99.90;;;;;;4593202;19;19974;-21
2023/04/23 05:14:43;;;;;;;;;;;15.00;99.90;;;;;;4594091;19;20249;-24
2023/04/23 05:16:14;;;;;;;;;;;15.00;99.90;;;;;;4593567;19;19929;-21
2023/04/23 05:17:50;;;;;;;;;;;15.00;99.90;;;;;;4593912;19;19926;-22
2023/04/23 05:19:21;;;;;;;;;;;15.10;99.90;;;;;;4594072;19;20502;-22
2023/04/23 05:20:56;;;;;;;;;;;15.00;99.90;;;;;;4594243;19;19918;-22
2023/04/23 05:22:29;;;;;;;;;;;15.10;99.90;;;;;;4593619;19;19921;-21
2023/04/23 05:24:01;;;;;;;;;;;15.10;99.90;;;;;;4592587;19;19928;-21
2023/04/23 05:25:33;;;;;;;;;;;15.10;99.90;;;;;;4593542;19;20317;-22
2023/04/23 05:27:05;;;;;;;;;;;15.10;99.90;;;;;;4593676;19;19922;-23
2023/04/23 05:28:36;;;;;;;;;;;15.10;99.90;;;;;;4593445;19;19942;-22
2023/04/23 05:30:08;;;;;;;;;;;15.10;99.90;;;;;;4593317;19;19930;-23
2023/04/23 05:31:39;;;;;;;;;;;15.10;99.90;;;;;;4592525;19;19929;-21
2023/04/23 05:33:11;;;;;;;;;;;15.10;99.90;;;;;;4593958;19;20006;-21
2023/04/23 05:34:42;;;;;;;;;;;15.10;99.90;;;;;;4592319;19;20294;-21
2023/04/23 05:36:13;;;;;;;;;;;15.10;99.90;;;;;;4592887;19;19923;-21
2023/04/23 05:37:44;;;;;;;;;;;15.20;99.90;;;;;;4593929;19;19935;-22
2023/04/23 05:39:15;;;;;;;;;;;15.20;99.90;;;;;;4593192;19;20245;-22
2023/04/23 05:40:46;;;;;;;;;;;15.20;99.90;;;;;;4593334;19;19923;-21
2023/04/23 05:42:19;;;;;;;;;;;15.20;99.90;;;;;;4592273;19;19911;-22
2023/04/23 05:43:50;;;;;;;;;;;15.20;99.90;;;;;;4592955;19;19918;-21
2023/04/23 05:45:21;;;;;;;;;;;15.20;99.90;;;;;;4592772;19;20357;-21
2023/04/23 05:46:53;;;;;;;;;;;15.20;99.90;;;;;;4593316;19;19974;-22
2023/04/23 05:48:24;;;;;;;;;;;15.20;99.90;;;;;;4593772;19;19926;-21
2023/04/23 05:49:58;;;;;;;;;;;15.20;99.90;;;;;;4593668;19;19970;-21
2023/04/23 05:51:34;;;;;;;;;;;15.20;99.90;;;;;;4591883;19;19932;-24
2023/04/23 05:53:06;;;;;;;;;;;15.20;99.90;;;;;;4591511;19;19922;-22
2023/04/23 05:54:36;;;;;;;;;;;15.20;99.90;;;;;;4592008;19;20382;-21
2023/04/23 05:56:07;;;;;;;;;;;15.20;99.90;;;;;;4592589;19;19938;-23
2023/04/23 05:57:39;;;;;;;;;;;15.20;99.90;;;;;;4593021;19;19952;-22
2023/04/23 05:59:12;;;;;;;;;;;15.10;99.90;;;;;;4593370;19;19926;-22
2023/04/23 06:00:42;;;;;;;;;;;15.20;99.90;;;;;;4593335;19;19914;-22
2023/04/23 06:02:14;;;;;;;;;;;15.20;99.90;;;;;;4591743;19;19923;-22
2023/04/23 06:03:45;;;;;;;;;;;15.20;99.90;;;;;;4592388;19;19918;-22
2023/04/23 06:05:16;;;;;;;;;;;15.20;99.90;;;;;;4591578;19;19919;-22
2023/04/23 06:06:47;;;;;;;;;;;15.20;99.90;;;;;;4593024;19;19951;-21
2023/04/23 06:08:19;;;;;;;;;;;15.20;99.90;;;;;;4592350;19;19918;-21
2023/04/23 06:09:50;;;;;;;;;;;15.20;99.90;;;;;;4592672;19;19914;-21
2023/04/23 06:11:21;;;;;;;;;;;15.20;99.90;;;;;;4591144;19;19911;-21
2023/04/23 06:12:54;;;;;;;;;;;15.20;99.90;;;;;;4592220;19;19925;-21
2023/04/23 06:14:25;;;;;;;;;;;15.30;99.90;;;;;;4591462;19;20003;-21
2023/04/23 06:15:56;;;;;;;;;;;15.30;99.90;;;;;;4591260;19;20264;-21
2023/04/23 06:17:27;;;;;;;;;;;15.30;99.90;;;;;;4592895;19;19915;-21
2023/04/23 06:19:02;;;;;;;;;;;15.30;99.90;;;;;;4593017;19;19927;-21
2023/04/23 06:20:33;;;;;;;;;;;15.30;99.90;;;;;;4592352;19;19935;-22
2023/04/23 06:22:04;;;;;;;;;;;15.30;99.90;;;;;;4592626;19;19919;-21
2023/04/23 06:23:35;;;;;;;;;;;15.40;99.90;;;;;;4592964;19;19915;-22
2023/04/23 06:25:07;;;;;;;;;;;15.40;99.90;;;;;;4592474;19;19919;-22
2023/04/23 06:26:38;;;;;;;;;;;15.40;99.90;;;;;;4592624;19;19925;-21
2023/04/23 06:28:09;;;;;;;;;;;15.40;99.90;;;;;;4592266;19;19915;-22
2023/04/23 06:29:40;;;;;;;;;;;15.40;99.90;;;;;;4589710;19;19915;-21
2023/04/23 06:31:11;;;;;;;;;;;15.40;99.90;;;;;;4590265;19;19929;-21
2023/04/23 06:32:42;;;;;;;;;;;15.40;99.90;;;;;;4590925;19;19922;-21
2023/04/23 06:34:13;;;;;;;;;;;15.40;99.90;;;;;;4592169;19;19911;-22
2023/04/23 06:35:45;;;;;;;;;;;15.40;99.90;;;;;;4591423;19;19914;-22
2023/04/23 06:37:16;;;;;;;;;;;15.50;99.90;;;;;;4591681;19;20304;-21
2023/04/23 06:38:47;;;;;;;;;;;15.50;99.90;;;;;;4592371;19;20344;-24
2023/04/23 06:40:18;;;;;;;;;;;15.50;99.90;;;;;;4592090;19;19918;-21
2023/04/23 06:41:49;;;;;;;;;;;15.40;99.90;;;;;;4591854;19;19922;-22
2023/04/23 06:43:20;;;;;;;;;;;15.50;99.90;;;;;;4590858;19;19918;-22
2023/04/23 06:44:51;;;;;;;;;;;15.50;99.90;;;;;;4591651;19;19922;-21
2023/04/23 06:46:22;;;;;;;;;;;15.50;99.90;;;;;;4592732;19;20313;-21
2023/04/23 06:47:53;;;;;;;;;;;15.50;99.90;;;;;;4591566;19;19919;-21
2023/04/23 06:49:24;;;;;;;;;;;15.50;99.90;;;;;;4591689;19;20367;-21
2023/04/23 06:50:55;;;;;;;;;;;15.50;99.90;;;;;;4590956;19;19922;-23
2023/04/23 06:52:26;;;;;;;;;;;15.60;99.90;;;;;;4590693;19;20264;-21
2023/04/23 06:53:57;;;;;;;;;;;15.60;99.90;;;;;;4591089;19;19915;-21
2023/04/23 06:55:28;;;;;;;;;;;15.60;99.90;;;;;;4591923;19;20241;-22
2023/04/23 06:57:00;;;;;;;;;;;15.60;99.90;;;;;;4590448;19;19922;-21
2023/04/23 06:58:31;;;;;;;;;;;15.60;99.90;;;;;;4591200;19;19915;-22
2023/04/23 07:00:02;;;;;;;;;;;15.60;99.90;;;;;;4591807;19;20253;-21
2023/04/23 07:01:33;;;;;;;;;;;15.60;99.90;;;;;;4591894;19;19930;-21
2023/04/23 07:03:04;;;;;;;;;;;15.60;99.90;;;;;;4592457;19;20328;-22
2023/04/23 07:04:35;;;;;;;;;;;15.60;99.90;;;;;;4591163;19;19970;-22
2023/04/23 07:06:06;;;;;;;;;;;15.60;99.90;;;;;;4591745;19;19919;-21
2023/04/23 07:07:41;;;;;;;;;;;15.70;99.90;;;;;;4592152;19;19925;-22
2023/04/23 07:09:12;;;;;;;;;;;15.70;99.90;;;;;;4591715;19;20245;-21
2023/04/23 07:10:44;;;;;;;;;;;15.70;99.90;;;;;;4590835;19;19925;-21
2023/04/23 07:12:14;;;;;;;;;;;15.70;99.90;;;;;;4591362;19;19974;-22
2023/04/23 07:13:45;;;;;;;;;;;15.70;99.90;;;;;;4591415;19;19919;-21
2023/04/23 07:15:17;;;;;;;;;;;15.70;99.90;;;;;;4591480;19;19918;-22
2023/04/23 07:16:48;;;;;;;;;;;15.70;99.90;;;;;;4591226;19;19915;-21
2023/04/23 07:18:19;;;;;;;;;;;15.70;99.90;;;;;;4591369;19;20245;-22
2023/04/23 07:19:50;;;;;;;;;;;15.80;99.90;;;;;;4591818;19;19938;-21
2023/04/23 07:21:21;;;;;;;;;;;15.80;99.90;;;;;;4591351;19;19918;-21
2023/04/23 07:22:52;;;;;;;;;;;15.90;99.90;;;;;;4590128;19;19922;-22
2023/04/23 07:24:25;;;;;;;;;;;15.80;99.90;;;;;;4591192;19;19911;-21
2023/04/23 07:25:56;;;;;;;;;;;15.90;99.90;;;;;;4590964;19;19907;-22
2023/04/23 07:27:28;;;;;;;;;;;15.90;99.90;;;;;;4590963;19;19991;-21
2023/04/23 07:29:00;;;;;;;;;;;15.90;99.90;;;;;;4591236;19;19939;-21
2023/04/23 07:30:32;;;;;;;;;;;16.00;99.90;;;;;;4591135;19;19923;-22
2023/04/23 07:32:03;;;;;;;;;;;16.00;99.90;;;;;;4590531;19;20329;-21
2023/04/23 07:33:35;;;;;;;;;;;16.00;99.90;;;;;;4591085;19;19915;-22
2023/04/23 07:35:07;;;;;;;;;;;16.10;99.90;;;;;;4591204;19;20260;-21
2023/04/23 07:36:38;;;;;;;;;;;16.10;99.90;;;;;;4590839;19;19914;-21
2023/04/23 07:38:09;;;;;;;;;;;16.10;99.90;;;;;;4591869;19;19923;-22
2023/04/23 07:39:41;;;;;;;;;;;16.20;99.90;;;;;;4590763;19;19939;-21
2023/04/23 07:41:12;;;;;;;;;;;16.20;99.90;;;;;;4591416;19;20322;-24
2023/04/23 07:42:43;;;;;;;;;;;16.30;99.90;;;;;;4591559;19;19926;-21
2023/04/23 07:44:14;;;;;;;;;;;16.30;99.90;;;;;;4589589;19;19914;-22
2023/04/23 07:45:46;;;;;;;;;;;16.40;99.90;;;;;;4590389;19;19919;-22
2023/04/23 07:47:17;;;;;;;;;;;16.40;99.90;;;;;;4590819;19;19926;-22
2023/04/23 07:48:48;;;;;;;;;;;16.40;99.90;;;;;;4591476;19;19929;-22
2023/04/23 07:50:21;;;;;;;;;;;16.50;99.90;;;;;;4590382;19;19995;-21
2023/04/23 07:51:52;;;;;;;;;;;16.70;99.90;;;;;;4589870;19;19922;-22
2023/04/23 07:53:23;;;;;;;;;;;16.90;99.90;;;;;;4590918;19;19919;-22
2023/04/23 07:54:56;;;;;;;;;;;17.00;99.90;;;;;;4588413;19;19939;-21
2023/04/23 07:56:31;;;;;;;;;;;16.90;99.90;;;;;;4589880;19;19915;-22
2023/04/23 07:58:04;;;;;;;;;;;16.80;99.90;;;;;;4589380;19;19921;-21
2023/04/23 07:59:40;;;;;;;;;;;16.70;99.90;;;;;;4589899;19;19938;-22
2023/04/23 08:01:11;;;;;;;;;;;16.60;99.90;;;;;;4590780;19;19946;-21
2023/04/23 08:02:42;;;;;;;;;;;16.60;99.90;;;;;;4590536;19;19922;-22
2023/04/23 08:04:13;;;;;;;;;;;16.60;99.90;;;;;;4590814;19;19915;-22
2023/04/23 08:05:45;;;;;;;;;;;16.60;99.90;;;;;;4591433;19;20322;-21
2023/04/23 08:07:15;;;;;;;;;;;16.60;99.90;;;;;;4590804;19;19918;-21
2023/04/23 08:08:46;;;;;;;;;;;16.60;99.90;;;;;;4590526;19;19922;-22
2023/04/23 08:10:18;;;;;;;;;;;16.70;99.90;;;;;;4591016;19;19956;-22
2023/04/23 08:11:49;;;;;;;;;;;16.90;99.90;;;;;;4589175;19;19918;-22
2023/04/23 08:13:20;;;;;;;;;;;17.10;99.90;;;;;;4589130;19;20395;-21
2023/04/23 08:14:51;;;;;;;;;;;17.30;99.90;;;;;;4589473;19;19948;-22
2023/04/23 08:16:22;;;;;;;;;;;17.30;99.90;;;;;;4589973;19;20229;-23
2023/04/23 08:17:53;;;;;;;;;;;17.30;99.90;;;;;;4589438;19;19935;-22
2023/04/23 08:19:25;;;;;;;;;;;17.20;99.90;;;;;;4589876;19;20356;-24
2023/04/23 08:20:57;;;;;;;;;;;17.00;99.90;;;;;;4590476;19;19935;-23
2023/04/23 08:22:29;;;;;;;;;;;17.00;99.90;;;;;;4588935;19;19999;-22
2023/04/23 08:24:03;;;;;;;;;;;16.90;99.90;;;;;;4590043;19;19930;-22
2023/04/23 08:25:34;;;;;;;;;;;16.80;99.90;;;;;;4589641;19;19971;-23
2023/04/23 08:27:06;;;;;;;;;;;16.80;99.90;;;;;;4590619;19;19927;-22
2023/04/23 08:28:39;;;;;;;;;;;16.80;99.90;;;;;;4590845;19;19943;-23
2023/04/23 08:30:10;;;;;;;;;;;16.80;99.90;;;;;;4589587;19;19914;-23
2023/04/23 08:31:41;;;;;;;;;;;16.80;99.90;;;;;;4588425;19;19910;-22
2023/04/23 08:33:12;;;;;;;;;;;16.90;99.90;;;;;;4590666;19;19942;-22
2023/04/23 08:34:43;;;;;;;;;;;16.90;99.90;;;;;;4590655;19;19922;-22
2023/04/23 08:36:14;;;;;;;;;;;16.90;99.90;;;;;;4589839;19;19918;-22
2023/04/23 08:37:45;;;;;;;;;;;17.00;99.90;;;;;;4589987;19;19910;-22
2023/04/23 08:39:16;;;;;;;;;;;16.90;99.90;;;;;;4594232;19;19919;-22
2023/04/23 08:40:47;;;;;;;;;;;16.90;99.90;;;;;;4594737;19;20226;-22
2023/04/23 08:42:37;;;;;;;;;;;16.90;99.90;;;;;;4593076;19;19997;-22
2023/04/23 08:44:16;;;;;;;;;;;17.00;99.90;;;;;;4593895;19;19915;-22
2023/04/23 08:45:47;;;;;;;;;;;17.00;99.90;;;;;;4594787;19;19911;-22
2023/04/23 08:47:18;;;;;;;;;;;17.00;99.90;;;;;;4595005;19;20336;-22
2023/04/23 08:48:50;;;;;;;;;;;17.00;99.90;;;;;;4593986;19;19962;-22
2023/04/23 08:50:22;;;;;;;;;;;17.00;99.90;;;;;;4593727;19;19926;-22
2023/04/23 08:51:53;;;;;;;;;;;17.00;99.90;;;;;;4593300;19;19919;-22